createdAt,value
2023-03-27T00:04:25.008Z,7.05
2023-03-27T00:09:29.148Z,7.09
2023-03-27T00:14:32.693Z,7.09
2023-03-27T00:19:35.593Z,6.98
2023-03-27T00:24:37.234Z,6.82
2023-03-27T00:29:40.342Z,6.73
2023-03-27T00:34:41.969Z,6.74
2023-03-27T00:39:43.680Z,6.59
2023-03-27T00:44:46.723Z,6.72
2023-03-27T00:49:50.604Z,6.38
2023-03-27T00:54:52.290Z,6.17
2023-03-27T00:59:57.360Z,6.25
2023-03-27T01:04:59.106Z,6.31
2023-03-27T01:10:00.908Z,5.92
2023-03-27T01:15:28.205Z,5.99
2023-03-27T01:21:03.985Z,5.89
2023-03-27T01:26:46.225Z,5.66
2023-03-27T01:32:07.119Z,5.47
2023-03-27T01:37:33.338Z,5.40
2023-03-27T01:42:39.266Z,5.30
2023-03-27T01:47:46.394Z,5.30
2023-03-27T01:52:53.393Z,5.33
2023-03-27T01:58:00.238Z,5.13
2023-03-27T02:03:08.595Z,5.08
2023-03-27T02:08:15.596Z,4.93
2023-03-27T02:13:25.590Z,5.01
2023-03-27T02:18:32.444Z,5.13
2023-03-27T02:23:34.088Z,5.22
2023-03-27T02:28:48.596Z,5.13
2023-03-27T02:34:08.933Z,5.04
2023-03-27T02:39:17.336Z,5.30
2023-03-27T02:44:32.163Z,5.00
2023-03-27T02:49:39.927Z,5.03
2023-03-27T02:54:47.361Z,4.96
2023-03-27T02:59:54.377Z,4.82
2023-03-27T03:05:01.562Z,4.88
2023-03-27T03:10:03.767Z,4.98
2023-03-27T03:15:08.442Z,4.79
2023-03-27T03:20:11.048Z,4.72
2023-03-27T03:25:12.948Z,4.66
2023-03-27T03:30:16.794Z,4.80
2023-03-27T03:35:19.329Z,4.77
2023-03-27T03:40:21.266Z,4.73
2023-03-27T03:45:24.374Z,4.64
2023-03-27T03:50:26.157Z,4.82
2023-03-27T03:55:27.829Z,4.71
2023-03-27T04:00:31.561Z,4.94
2023-03-27T04:05:33.288Z,4.72
2023-03-27T04:10:36.520Z,4.75
2023-03-27T04:15:39.608Z,4.90
2023-03-27T04:20:41.316Z,4.40
2023-03-27T04:25:43.044Z,4.61
2023-03-27T04:30:46.229Z,4.62
2023-03-27T04:36:06.935Z,4.70
2023-03-27T04:41:09.251Z,4.66
2023-03-27T04:46:12.326Z,4.66
2023-03-27T04:51:13.968Z,4.41
2023-03-27T04:56:15.646Z,4.32
2023-03-27T05:01:30.612Z,4.43
2023-03-27T05:06:32.217Z,4.64
2023-03-27T05:11:34.044Z,4.58
2023-03-27T05:16:37.140Z,4.73
2023-03-27T05:21:39.243Z,4.77
2023-03-27T05:26:41.418Z,4.54
2023-03-27T05:31:44.579Z,4.69
2023-03-27T05:36:46.469Z,4.69
2023-03-27T05:41:48.105Z,4.74
2023-03-27T05:46:51.240Z,4.70
2023-03-27T05:51:52.899Z,4.62
2023-03-27T05:56:54.675Z,4.82
2023-03-27T06:01:57.806Z,5.12
2023-03-27T06:06:59.430Z,5.01
2023-03-27T06:12:01.047Z,5.16
2023-03-27T06:17:04.046Z,5.14
2023-03-27T06:22:05.715Z,5.31
2023-03-27T06:27:09.151Z,5.24
2023-03-27T06:32:14.370Z,5.87
2023-03-27T06:37:15.989Z,5.99
2023-03-27T06:42:17.968Z,6.04
2023-03-27T06:47:21.062Z,6.05
2023-03-27T06:52:22.943Z,6.58
2023-03-27T06:57:24.616Z,7.20
2023-03-27T07:02:27.751Z,6.23
2023-03-27T07:07:29.449Z,10.28
2023-03-27T07:12:31.137Z,10.42
2023-03-27T07:17:45.894Z,11.88
2023-03-27T07:22:50.338Z,11.47
2023-03-27T07:28:38.582Z,12.04
2023-03-27T07:33:42.696Z,11.69
2023-03-27T07:38:46.383Z,11.07
2023-03-27T07:43:54.368Z,9.94
2023-03-27T07:48:57.825Z,9.32
2023-03-27T07:53:59.518Z,9.64
2023-03-27T07:59:01.416Z,10.23
2023-03-27T08:04:04.861Z,10.18
2023-03-27T08:09:06.817Z,9.92
2023-03-27T08:14:08.568Z,9.94
2023-03-27T08:19:36.854Z,10.13
2023-03-27T08:25:07.231Z,10.52
2023-03-27T08:32:02.500Z,10.14
2023-03-27T08:35:56.292Z,10.05
2023-03-27T08:41:06.907Z,10.15
2023-03-27T08:46:16.681Z,9.31
2023-03-27T08:51:25.326Z,9.08
2023-03-27T08:56:27.675Z,8.92
2023-03-27T09:01:36.842Z,8.40
2023-03-27T09:07:26.181Z,7.71
2023-03-27T09:13:00.116Z,7.37
2023-03-27T09:18:06.619Z,6.99
2023-03-27T09:23:15.759Z,7.12
2023-03-27T09:28:21.209Z,8.09
2023-03-27T09:33:23.692Z,7.85
2023-03-27T09:38:35.658Z,9.65
2023-03-27T09:44:05.199Z,9.61
2023-03-27T09:49:36.881Z,9.46
2023-03-27T09:54:53.306Z,8.70
2023-03-27T09:59:59.814Z,8.69
2023-03-27T10:05:04.130Z,9.37
2023-03-27T10:10:21.712Z,8.65
2023-03-27T10:15:34.598Z,9.51
2023-03-27T10:20:37.774Z,8.80
2023-03-27T10:25:49.873Z,9.24
2023-03-27T10:30:58.737Z,9.58
2023-03-27T10:36:33.001Z,9.58
2023-03-27T10:42:17.233Z,9.97
2023-03-27T10:47:25.958Z,9.28
2023-03-27T10:52:35.816Z,10.10
2023-03-27T10:57:41.617Z,9.56
2023-03-27T11:02:49.469Z,9.10
2023-03-27T11:08:02.042Z,8.59
2023-03-27T11:13:13.550Z,8.46
2023-03-27T11:18:22.141Z,8.70
2023-03-27T11:23:30.384Z,8.27
2023-03-27T11:28:46.718Z,7.37
2023-03-27T11:34:09.945Z,7.50
2023-03-27T11:39:28.822Z,7.62
2023-03-27T11:44:33.151Z,8.37
2023-03-27T11:49:52.953Z,7.69
2023-03-27T11:55:10.572Z,7.73
2023-03-27T12:00:26.538Z,7.40
2023-03-27T12:05:33.893Z,7.47
2023-03-27T12:10:38.148Z,7.62
2023-03-27T12:15:54.711Z,8.55
2023-03-27T12:21:09.728Z,8.04
2023-03-27T12:26:34.930Z,8.38
2023-03-27T12:31:53.084Z,8.72
2023-03-27T12:36:55.967Z,8.56
2023-03-27T12:41:57.696Z,8.62
2023-03-27T12:47:20.550Z,8.56
2023-03-27T12:52:22.400Z,8.67
2023-03-27T12:57:24.291Z,8.30
2023-03-27T13:03:05.981Z,8.72
2023-03-27T13:08:28.828Z,8.65
2023-03-27T13:15:00.601Z,8.76
2023-03-27T13:25:31.849Z,9.19
2023-03-27T13:30:46.522Z,9.39
2023-03-27T13:36:02.849Z,9.28
2023-03-27T13:41:43.839Z,8.90
2023-03-27T13:46:51.377Z,9.21
2023-03-27T13:52:21.846Z,9.12
2023-03-27T13:57:38.712Z,8.89
2023-03-27T14:03:24.521Z,8.96
2023-03-27T14:08:38.293Z,9.02
2023-03-27T14:14:02.946Z,9.12
2023-03-27T14:19:40.212Z,9.22
2023-03-27T14:24:46.290Z,9.32
2023-03-27T14:29:48.089Z,9.43
2023-03-27T14:39:55.836Z,8.49
2023-03-27T14:45:16.397Z,8.22
2023-03-27T14:50:19.694Z,8.24
2023-03-27T14:55:24.061Z,7.95
2023-03-27T15:00:27.580Z,8.36
2023-03-27T15:05:30.579Z,8.29
2023-03-27T15:10:32.614Z,8.34
2023-03-27T15:15:38.302Z,7.81
2023-03-27T15:20:41.664Z,7.88
2023-03-27T15:25:47.109Z,7.70
2023-03-27T15:30:53.329Z,7.82
2023-03-27T15:35:57.180Z,7.73
2023-03-27T15:41:02.001Z,7.90
2023-03-27T15:46:14.938Z,6.50
2023-03-27T15:51:30.164Z,6.06
2023-03-27T15:56:39.760Z,6.08
2023-03-27T16:01:48.520Z,6.36
2023-03-27T16:06:54.418Z,6.15
2023-03-27T16:11:57.931Z,6.41
2023-03-27T16:17:15.390Z,5.86
2023-03-27T16:22:23.014Z,5.99
2023-03-27T16:27:28.275Z,5.96
2023-03-27T16:32:30.047Z,6.06
2023-03-27T16:37:33.236Z,6.07
2023-03-27T16:42:34.934Z,5.81
2023-03-27T16:47:36.747Z,5.77
2023-03-27T16:52:39.837Z,5.83
2023-03-27T16:57:42.309Z,5.91
2023-03-27T17:02:44.270Z,5.99
2023-03-27T17:07:47.554Z,6.18
2023-03-27T17:12:49.293Z,5.81
2023-03-27T17:17:50.967Z,5.88
2023-03-27T17:22:54.092Z,6.08
2023-03-27T17:27:55.732Z,6.19
2023-03-27T17:32:57.412Z,6.09
2023-03-27T17:38:00.677Z,5.86
2023-03-27T17:43:02.357Z,5.95
2023-03-27T17:48:04.015Z,5.56
2023-03-27T17:53:07.053Z,5.32
2023-03-27T17:58:09.733Z,5.43
2023-03-27T18:03:11.959Z,5.65
2023-03-27T18:08:16.584Z,5.73
2023-03-27T18:13:19.023Z,5.61
2023-03-27T18:18:20.935Z,5.67
2023-03-27T18:23:24.092Z,5.63
2023-03-27T18:28:25.722Z,5.42
2023-03-27T18:33:27.601Z,5.02
2023-03-27T18:38:30.720Z,5.06
2023-03-27T18:43:32.469Z,5.03
2023-03-27T18:48:34.593Z,4.71
2023-03-27T18:53:37.626Z,4.43
2023-03-27T18:58:39.261Z,4.42
2023-03-27T19:03:40.901Z,4.43
2023-03-27T19:08:44.181Z,4.31
2023-03-27T19:13:45.796Z,4.13
2023-03-27T19:18:47.399Z,4.28
2023-03-27T19:23:50.592Z,3.98
2023-03-27T19:28:52.256Z,4.20
2023-03-27T19:33:53.896Z,4.02
2023-03-27T19:38:57.292Z,3.99
2023-03-27T19:44:00.359Z,3.87
2023-03-27T19:49:03.054Z,3.95
2023-03-27T19:54:06.278Z,4.00
2023-03-27T19:59:09.821Z,3.72
2023-03-27T20:04:14.789Z,3.62
2023-03-27T20:09:18.081Z,3.62
2023-03-27T20:14:20.382Z,3.65
2023-03-27T20:19:23.685Z,3.51
2023-03-27T20:24:27.128Z,3.36
2023-03-27T20:29:29.177Z,3.22
2023-03-27T20:34:31.221Z,3.16
2023-03-27T20:39:34.687Z,3.21
2023-03-27T20:44:36.714Z,3.15
2023-03-27T20:49:41.561Z,3.06
2023-03-27T20:54:45.180Z,3.13
2023-03-27T20:59:47.711Z,3.18
2023-03-27T21:04:49.711Z,2.83
2023-03-27T21:09:52.777Z,2.99
2023-03-27T21:14:54.486Z,3.15
2023-03-27T21:19:56.166Z,3.26
2023-03-27T21:24:59.249Z,3.18
2023-03-27T21:30:00.876Z,3.18
2023-03-27T21:35:02.527Z,3.10
2023-03-27T21:40:07.117Z,3.03
2023-03-27T21:45:09.099Z,2.97
2023-03-27T21:50:11.212Z,3.15
2023-03-27T21:55:14.214Z,3.17
2023-03-27T22:00:16.329Z,3.24
2023-03-27T22:05:18.268Z,3.18
2023-03-27T22:10:21.262Z,2.85
2023-03-27T22:15:22.940Z,2.70
2023-03-27T22:20:24.579Z,2.88
2023-03-27T22:25:27.727Z,3.02
2023-03-27T22:30:29.489Z,3.07
2023-03-27T22:35:31.234Z,3.11
2023-03-27T22:40:34.219Z,3.10
2023-03-27T22:45:36.121Z,3.05
2023-03-27T22:50:37.767Z,3.10
2023-03-27T22:55:40.873Z,3.07
2023-03-27T23:00:42.617Z,3.15
2023-03-27T23:05:46.449Z,3.23
2023-03-27T23:10:56.322Z,3.00
2023-03-27T23:15:58.509Z,3.06
2023-03-27T23:21:02.271Z,2.99
2023-03-27T23:26:07.326Z,2.94
2023-03-27T23:31:12.598Z,2.95
2023-03-27T23:36:16.344Z,2.99
2023-03-27T23:41:20.058Z,2.85
2023-03-27T23:46:21.721Z,2.82
2023-03-27T23:51:23.478Z,2.75
2023-03-27T23:56:26.544Z,2.94
